Terminal Aerodrome Forecast
Issued by NWS

Home | Current Version | Previous Version | Text Only | Print | Product List | Glossary On
Versions: 1 2 3 4 5 6 7 8 9 10 11 12 13
000
FTUS46 KLOX 010536
TAFPRB
TAF
KPRB 010536Z 0106/0206 30007KT P6SM SCT250
     FM011200 VRB03KT 6SM BR OVC005
     FM011700 30006KT P6SM SKC
     FM012200 21015G22KT P6SM SKC
     FM020300 29008KT P6SM SKC=

USA.gov is the U.S. government's official web portal to all federal, state and local government web resources and services.